Rheinfels — V2AI4 — position and weather

sailwx.info

Track history (hours):
 
Tides and Currents Weather Stations Pressure Air Temp Water Temp Dewpoint Dewpoint Depression Visibility Wind Speed Wind Dir Waves Ship Positions

Rheinfels

Last reported at 2016-Feb-05 08:31 UTC. Time now 2016-Feb-07 17:32 UTC.
Position N 41°56' W 009°45'.

; draft 3.8 m.

Type: Cargo ship. MMSI: 304010767.

Date/timePositionNaut miles runAvg speedWind from/ knotsBaromVisibWave heightAir tempDewpointWater temp
2016-Feb-05 08:31N 41°56' W 009°45'1111.0
2016-Feb-05 07:30N 41°45' W 009°45'1110.2
2016-Feb-05 06:29N 41°35' W 009°44'1112.0
2016-Feb-05 05:33N 41°24' W 009°44'1111.1
2016-Feb-05 04:33N 41°12' W 009°44'1111.2
2016-Feb-05 03:33N 41°01' W 009°44'1111.1
2016-Feb-05 02:33N 40°50' W 009°44'1110.3
2016-Feb-05 01:30N 40°39' W 009°44'1310.7
2016-Feb-05 00:18N 40°27' W 009°43'8 9.9
2016-Feb-04 23:33N 40°19' W 009°44'1111.0
2016-Feb-04 22:33N 40°08' W 009°43'1111.0
2016-Feb-04 21:33N 39°57' W 009°43'1110.2
2016-Feb-04 20:30N 39°46' W 009°43'1110.5
2016-Feb-04 19:30N 39°36' W 009°43'9 9.8
2016-Feb-04 18:33N 39°26' W 009°43'1010.1
2016-Feb-04 17:33N 39°16' W 009°43'1010.1
2016-Feb-04 16:33N 39°06' W 009°42'1010.3
2016-Feb-04 15:33N 38°56' W 009°42'1010.1
2016-Feb-04 14:33N 38°46' W 009°42'9 8.5
2016-Feb-04 13:33N 38°39' W 009°36'1110.8
2016-Feb-04 12:33N 38°38' W 009°22'1010.1
2016-Feb-04 11:33N 38°42' W 009°10'5 4.4
2016-Feb-04 10:32N 38°40' W 009°04'0 0.0
2016-Feb-04 09:32N 38°40' W 009°04'0 0.0
2016-Feb-04 08:32N 38°40' W 009°04'0 0.0
2016-Feb-04 07:32N 38°40' W 009°04'0 0.0
2016-Feb-04 06:32N 38°40' W 009°04'0 0.0
2016-Feb-04 05:32N 38°40' W 009°04'0 0.0
2016-Feb-04 04:32N 38°40' W 009°04'0 0.0
2016-Feb-04 03:32N 38°40' W 009°04'0 0.0
2016-Feb-04 02:32N 38°40' W 009°04'0 0.0
2016-Feb-04 01:32N 38°40' W 009°04'0 0.0
2016-Feb-04 00:32N 38°40' W 009°04'0 0.0
2016-Feb-03 23:32N 38°40' W 009°04'0 0.0
2016-Feb-03 22:32N 38°40' W 009°04'0 0.0
2016-Feb-03 21:32N 38°40' W 009°04'0 0.0
2016-Feb-03 20:32N 38°40' W 009°04'0 0.0
2016-Feb-03 19:33N 38°40' W 009°04'0 0.0
2016-Feb-03 18:32N 38°40' W 009°04'0 0.0
2016-Feb-03 17:33N 38°40' W 009°04'0 0.0
2016-Feb-03 16:33N 38°40' W 009°04'0 0.0
2016-Feb-03 15:32N 38°40' W 009°04'0 0.0
2016-Feb-03 14:33N 38°40' W 009°04'0 0.0
2016-Feb-03 13:32N 38°40' W 009°04'0 0.0
2016-Feb-03 12:33N 38°40' W 009°04'0 0.0
2016-Feb-03 11:33N 38°40' W 009°04'0 0.0
2016-Feb-03 10:32N 38°40' W 009°04'0 0.0
2016-Feb-03 09:32N 38°40' W 009°04'0 0.0
2016-Feb-03 08:32N 38°40' W 009°04'0 0.0
2016-Feb-03 07:33N 38°40' W 009°04'0 0.0
2016-Feb-03 06:33N 38°40' W 009°04'0 0.0
2016-Feb-03 05:33N 38°40' W 009°04'0 0.0
2016-Feb-03 04:32N 38°40' W 009°04'0 0.0
2016-Feb-03 03:32N 38°40' W 009°04'0 0.0
2016-Feb-03 02:33N 38°40' W 009°04'0 0.0
2016-Feb-03 01:33N 38°40' W 009°04'0 0.0
2016-Feb-03 00:33N 38°40' W 009°04'0 0.0
2016-Feb-02 23:32N 38°40' W 009°04'0 0.0
2016-Feb-02 22:33N 38°40' W 009°04'0 0.0
2016-Feb-02 21:32N 38°40' W 009°04'0 0.0
2016-Feb-02 20:32N 38°40' W 009°04'0 0.0
2016-Feb-02 19:32N 38°40' W 009°04'0 0.0
2016-Feb-02 18:33N 38°40' W 009°04'1 1.4
2016-Feb-02 17:33N 38°41' W 009°06'8 8.4
2016-Feb-02 16:33N 38°41' W 009°17'6 6.3
2016-Feb-02 15:33N 38°38' W 009°24'2 2.4
2016-Feb-02 14:33N 38°40' W 009°24'0 0.0
2016-Feb-02 13:31N 38°40' W 009°24'0 0.0
2016-Feb-02 12:30N 38°40' W 009°24'0 0.0
2016-Feb-02 11:18N 38°40' W 009°24'0 0.0
2016-Feb-02 10:33N 38°41' W 009°24'0 0.0
2016-Feb-02 09:33N 38°40' W 009°24'0 0.0
2016-Feb-02 08:30N 38°40' W 009°24'0 0.0
2016-Feb-02 07:21N 38°40' W 009°24'0 0.0
2016-Feb-02 06:30N 38°40' W 009°24'0 0.0
2016-Feb-02 05:18N 38°40' W 009°24'0 0.0
2016-Feb-02 04:33N 38°40' W 009°24'0 0.0
2016-Feb-02 03:30N 38°40' W 009°24'0 0.0
2016-Feb-02 02:30N 38°40' W 009°24'0 0.0
2016-Feb-02 01:27N 38°40' W 009°24'0 0.0
2016-Feb-02 00:33N 38°40' W 009°24'0 0.0
2016-Feb-01 23:30N 38°40' W 009°24'0 0.0
2016-Feb-01 22:33N 38°40' W 009°24'0 0.0
2016-Feb-01 21:33N 38°40' W 009°24'0 0.0
2016-Feb-01 20:30N 38°41' W 009°24'0 0.0
2016-Feb-01 19:33N 38°41' W 009°24'0 0.0
2016-Feb-01 18:33N 38°41' W 009°24'0 0.0
2016-Feb-01 17:33N 38°41' W 009°24'0 0.0
2016-Feb-01 16:33N 38°41' W 009°24'0 0.0
2016-Feb-01 15:33N 38°41' W 009°24'8 8.0
2016-Feb-01 14:33N 38°39' W 009°34'8 7.9
2016-Feb-01 13:33N 38°43' W 009°43'1010.2
2016-Feb-01 12:33N 38°53' W 009°44'1010.3
2016-Feb-01 11:34N 39°03' W 009°45'1111.3
2016-Feb-01 10:33N 39°15' W 009°46'10 9.2
2016-Feb-01 09:30N 39°24' W 009°47'1110.1
2016-Feb-01 08:24N 39°35' W 009°48'911.1
2016-Feb-01 07:33N 39°45' W 009°49'10 9.5
2016-Feb-01 06:30N 39°55' W 009°49'1010.2
2016-Feb-01 05:33N 40°04' W 009°50'1010.1
2016-Feb-01 04:33N 40°15' W 009°51'1110.9
2016-Feb-01 03:33N 40°26' W 009°52'1110.3
2016-Feb-01 02:31N 40°36' W 009°53'1010.1
2016-Feb-01 01:33N 40°46' W 009°54'1110.5
2016-Feb-01 00:30N 40°57' W 009°55'1010.1
2016-Jan-31 23:33N 41°06' W 009°55'10 9.9
2016-Jan-31 22:30N 41°17' W 009°57'9 9.6
2016-Jan-31 21:33N 41°26' W 009°57'10 9.9
2016-Jan-31 20:33N 41°36' W 009°58'1010.0
2016-Jan-31 19:33N 41°46' W 009°59'10 9.6
2016-Jan-31 18:30N 41°56' W 010°00'  
2016-Jan-27 18:06N 50°33' E 000°01'4 7.0
2016-Jan-27 17:32N 50°34' E 000°07'8 6.9
2016-Jan-27 16:27N 50°36' E 000°18'11 5.4
2016-Jan-27 14:25N 50°39' E 000°35'4 4.7
2016-Jan-27 13:33N 50°41' E 000°40'4 4.1
2016-Jan-27 12:33N 50°44' E 000°45'4 3.9
2016-Jan-27 11:33N 50°46' E 000°50'14 4.5
2016-Jan-27 08:28N 50°54' E 001°08'5 5.4
2016-Jan-27 07:34N 50°57' E 001°14'5 5.2
2016-Jan-27 06:34N 51°01' E 001°20'4 4.4
2016-Jan-27 05:33N 51°03' E 001°26'3 3.1
2016-Jan-27 04:34N 51°06' E 001°29'2 2.1
2016-Jan-27 03:34N 51°07' E 001°32'1 0.7
2016-Jan-27 02:34N 51°08' E 001°33'0 0.2
2016-Jan-27 01:33N 51°08' E 001°33'1 0.7
2016-Jan-27 00:33N 51°08' E 001°33'2 1.6
2016-Jan-26 23:34N 51°09' E 001°35'4 3.6
2016-Jan-26 22:34N 51°13' E 001°37'7 6.7
2016-Jan-26 21:34N 51°19' E 001°36'9 8.5
2016-Jan-26 20:33N 51°26' E 001°28'9 9.5
2016-Jan-26 19:34N 51°29' E 001°13'10 9.8
2016-Jan-26 18:33N 51°29' E 000°58'1010.5
2016-Jan-26 17:34N 51°30' E 000°41'1110.8
2016-Jan-26 16:34N 51°27' E 000°24'9 9.2
2016-Jan-26 15:33N 51°30' E 000°10'3 1.6
2016-Jan-26 13:33N 51°31' E 000°06'  
Track history (hours):
 
Tides and Currents Weather Stations Pressure Air Temp Water Temp Dewpoint Dewpoint Depression Visibility Wind Speed Wind Dir Waves Ship Positions

Rheinfels

Last reported at 2016-Feb-05 08:31 UTC. Time now 2016-Feb-07 17:32 UTC.
Position N 41°56' W 009°45'.

; draft 3.8 m.

Type: Cargo ship. MMSI: 304010767.

Date/timePositionNaut miles runAvg speedWind from/ knotsBaromVisibWave heightAir tempDewpointWater temp
2016-Feb-05 08:31N 41°56' W 009°45'1111.0
2016-Feb-05 07:30N 41°45' W 009°45'1110.2
2016-Feb-05 06:29N 41°35' W 009°44'1112.0
2016-Feb-05 05:33N 41°24' W 009°44'1111.1
2016-Feb-05 04:33N 41°12' W 009°44'1111.2
2016-Feb-05 03:33N 41°01' W 009°44'1111.1
2016-Feb-05 02:33N 40°50' W 009°44'1110.3
2016-Feb-05 01:30N 40°39' W 009°44'1310.7
2016-Feb-05 00:18N 40°27' W 009°43'8 9.9
2016-Feb-04 23:33N 40°19' W 009°44'1111.0
2016-Feb-04 22:33N 40°08' W 009°43'1111.0
2016-Feb-04 21:33N 39°57' W 009°43'1110.2
2016-Feb-04 20:30N 39°46' W 009°43'1110.5
2016-Feb-04 19:30N 39°36' W 009°43'9 9.8
2016-Feb-04 18:33N 39°26' W 009°43'1010.1
2016-Feb-04 17:33N 39°16' W 009°43'1010.1
2016-Feb-04 16:33N 39°06' W 009°42'1010.3
2016-Feb-04 15:33N 38°56' W 009°42'1010.1
2016-Feb-04 14:33N 38°46' W 009°42'9 8.5
2016-Feb-04 13:33N 38°39' W 009°36'1110.8
2016-Feb-04 12:33N 38°38' W 009°22'1010.1
2016-Feb-04 11:33N 38°42' W 009°10'5 4.4
2016-Feb-04 10:32N 38°40' W 009°04'0 0.0
2016-Feb-04 09:32N 38°40' W 009°04'0 0.0
2016-Feb-04 08:32N 38°40' W 009°04'0 0.0
2016-Feb-04 07:32N 38°40' W 009°04'0 0.0
2016-Feb-04 06:32N 38°40' W 009°04'0 0.0
2016-Feb-04 05:32N 38°40' W 009°04'0 0.0
2016-Feb-04 04:32N 38°40' W 009°04'0 0.0
2016-Feb-04 03:32N 38°40' W 009°04'0 0.0
2016-Feb-04 02:32N 38°40' W 009°04'0 0.0
2016-Feb-04 01:32N 38°40' W 009°04'0 0.0
2016-Feb-04 00:32N 38°40' W 009°04'0 0.0
2016-Feb-03 23:32N 38°40' W 009°04'0 0.0
2016-Feb-03 22:32N 38°40' W 009°04'0 0.0
2016-Feb-03 21:32N 38°40' W 009°04'0 0.0
2016-Feb-03 20:32N 38°40' W 009°04'0 0.0
2016-Feb-03 19:33N 38°40' W 009°04'0 0.0
2016-Feb-03 18:32N 38°40' W 009°04'0 0.0
2016-Feb-03 17:33N 38°40' W 009°04'0 0.0
2016-Feb-03 16:33N 38°40' W 009°04'0 0.0
2016-Feb-03 15:32N 38°40' W 009°04'0 0.0
2016-Feb-03 14:33N 38°40' W 009°04'0 0.0
2016-Feb-03 13:32N 38°40' W 009°04'0 0.0
2016-Feb-03 12:33N 38°40' W 009°04'0 0.0
2016-Feb-03 11:33N 38°40' W 009°04'0 0.0
2016-Feb-03 10:32N 38°40' W 009°04'0 0.0
2016-Feb-03 09:32N 38°40' W 009°04'0 0.0
2016-Feb-03 08:32N 38°40' W 009°04'0 0.0
2016-Feb-03 07:33N 38°40' W 009°04'0 0.0
2016-Feb-03 06:33N 38°40' W 009°04'0 0.0
2016-Feb-03 05:33N 38°40' W 009°04'0 0.0
2016-Feb-03 04:32N 38°40' W 009°04'0 0.0
2016-Feb-03 03:32N 38°40' W 009°04'0 0.0
2016-Feb-03 02:33N 38°40' W 009°04'0 0.0
2016-Feb-03 01:33N 38°40' W 009°04'0 0.0
2016-Feb-03 00:33N 38°40' W 009°04'0 0.0
2016-Feb-02 23:32N 38°40' W 009°04'0 0.0
2016-Feb-02 22:33N 38°40' W 009°04'0 0.0
2016-Feb-02 21:32N 38°40' W 009°04'0 0.0
2016-Feb-02 20:32N 38°40' W 009°04'0 0.0
2016-Feb-02 19:32N 38°40' W 009°04'0 0.0
2016-Feb-02 18:33N 38°40' W 009°04'1 1.4
2016-Feb-02 17:33N 38°41' W 009°06'8 8.4
2016-Feb-02 16:33N 38°41' W 009°17'6 6.3
2016-Feb-02 15:33N 38°38' W 009°24'2 2.4
2016-Feb-02 14:33N 38°40' W 009°24'0 0.0
2016-Feb-02 13:31N 38°40' W 009°24'0 0.0
2016-Feb-02 12:30N 38°40' W 009°24'0 0.0
2016-Feb-02 11:18N 38°40' W 009°24'0 0.0
2016-Feb-02 10:33N 38°41' W 009°24'0 0.0
2016-Feb-02 09:33N 38°40' W 009°24'0 0.0
2016-Feb-02 08:30N 38°40' W 009°24'0 0.0
2016-Feb-02 07:21N 38°40' W 009°24'0 0.0
2016-Feb-02 06:30N 38°40' W 009°24'0 0.0
2016-Feb-02 05:18N 38°40' W 009°24'0 0.0
2016-Feb-02 04:33N 38°40' W 009°24'0 0.0
2016-Feb-02 03:30N 38°40' W 009°24'0 0.0
2016-Feb-02 02:30N 38°40' W 009°24'0 0.0
2016-Feb-02 01:27N 38°40' W 009°24'0 0.0
2016-Feb-02 00:33N 38°40' W 009°24'0 0.0
2016-Feb-01 23:30N 38°40' W 009°24'0 0.0
2016-Feb-01 22:33N 38°40' W 009°24'0 0.0
2016-Feb-01 21:33N 38°40' W 009°24'0 0.0
2016-Feb-01 20:30N 38°41' W 009°24'0 0.0
2016-Feb-01 19:33N 38°41' W 009°24'0 0.0
2016-Feb-01 18:33N 38°41' W 009°24'0 0.0
2016-Feb-01 17:33N 38°41' W 009°24'0 0.0
2016-Feb-01 16:33N 38°41' W 009°24'0 0.0
2016-Feb-01 15:33N 38°41' W 009°24'8 8.0
2016-Feb-01 14:33N 38°39' W 009°34'8 7.9
2016-Feb-01 13:33N 38°43' W 009°43'1010.2
2016-Feb-01 12:33N 38°53' W 009°44'1010.3
2016-Feb-01 11:34N 39°03' W 009°45'1111.3
2016-Feb-01 10:33N 39°15' W 009°46'10 9.2
2016-Feb-01 09:30N 39°24' W 009°47'1110.1
2016-Feb-01 08:24N 39°35' W 009°48'911.1
2016-Feb-01 07:33N 39°45' W 009°49'10 9.5
2016-Feb-01 06:30N 39°55' W 009°49'1010.2
2016-Feb-01 05:33N 40°04' W 009°50'1010.1
2016-Feb-01 04:33N 40°15' W 009°51'1110.9
2016-Feb-01 03:33N 40°26' W 009°52'1110.3
2016-Feb-01 02:31N 40°36' W 009°53'1010.1
2016-Feb-01 01:33N 40°46' W 009°54'1110.5
2016-Feb-01 00:30N 40°57' W 009°55'1010.1
2016-Jan-31 23:33N 41°06' W 009°55'10 9.9
2016-Jan-31 22:30N 41°17' W 009°57'9 9.6
2016-Jan-31 21:33N 41°26' W 009°57'10 9.9
2016-Jan-31 20:33N 41°36' W 009°58'1010.0
2016-Jan-31 19:33N 41°46' W 009°59'10 9.6
2016-Jan-31 18:30N 41°56' W 010°00'  
2016-Jan-27 18:06N 50°33' E 000°01'4 7.0
2016-Jan-27 17:32N 50°34' E 000°07'8 6.9
2016-Jan-27 16:27N 50°36' E 000°18'11 5.4
2016-Jan-27 14:25N 50°39' E 000°35'4 4.7
2016-Jan-27 13:33N 50°41' E 000°40'4 4.1
2016-Jan-27 12:33N 50°44' E 000°45'4 3.9
2016-Jan-27 11:33N 50°46' E 000°50'14 4.5
2016-Jan-27 08:28N 50°54' E 001°08'5 5.4
2016-Jan-27 07:34N 50°57' E 001°14'5 5.2
2016-Jan-27 06:34N 51°01' E 001°20'4 4.4
2016-Jan-27 05:33N 51°03' E 001°26'3 3.1
2016-Jan-27 04:34N 51°06' E 001°29'2 2.1
2016-Jan-27 03:34N 51°07' E 001°32'1 0.7
2016-Jan-27 02:34N 51°08' E 001°33'0 0.2
2016-Jan-27 01:33N 51°08' E 001°33'1 0.7
2016-Jan-27 00:33N 51°08' E 001°33'2 1.6
2016-Jan-26 23:34N 51°09' E 001°35'4 3.6
2016-Jan-26 22:34N 51°13' E 001°37'7 6.7
2016-Jan-26 21:34N 51°19' E 001°36'9 8.5
2016-Jan-26 20:33N 51°26' E 001°28'9 9.5
2016-Jan-26 19:34N 51°29' E 001°13'10 9.8
2016-Jan-26 18:33N 51°29' E 000°58'1010.5
2016-Jan-26 17:34N 51°30' E 000°41'1110.8
2016-Jan-26 16:34N 51°27' E 000°24'9 9.2
2016-Jan-26 15:33N 51°30' E 000°10'3 1.6
2016-Jan-26 13:33N 51°31' E 000°06'  

Dump ship's entire track history